KLM744 SEQM-TNCA
Flight info
| Callsign | KLM744 |
|---|---|
| Flight time | 2h 8m |
| Altitude | 41000 |
| Route | ARNOK3A ARNOK DCT UGOSA DCT ARNEG DCT OSUNA DCT DATOR DATOR2A |
| Aircraft | MD11/H-SDE1E2E3FGHIJ2J3J4J5M1RWXY/LB1D1 |
Departure
| Time | 2026-04-28 12:23 |
|---|---|
| Airport | Mariscal Sucre International Airport (SEQM) |
Arrival
| Time | 2026-04-28 14:31 |
|---|---|
| Airport | Queen Beatrix International Airport (TNCA) |
| Time | Latitude | Longitude | Altitude | Speed | Heading |
|---|---|---|---|---|---|
| 2026-04-28 11:45 | -0.12430 | -78.35920 | 7850 ft | 0 kts | 267° |
| 2026-04-28 12:08 | -0.12430 | -78.35910 | 7831 ft | 4 kts | 267° |
| 2026-04-28 12:09 | -0.12428 | -78.35883 | 7855 ft | 4 kts | 267° |
| 2026-04-28 12:09 | -0.12427 | -78.35860 | 7850 ft | 4 kts | 255° |
| 2026-04-28 12:09 | -0.12415 | -78.35842 | 7850 ft | 4 kts | 190° |
| 2026-04-28 12:09 | -0.12390 | -78.35842 | 7850 ft | 2 kts | 176° |
| 2026-04-28 12:10 | -0.12384 | -78.35842 | 7850 ft | 0 kts | 176° |
| 2026-04-28 12:14 | -0.12386 | -78.35842 | 7850 ft | 2 kts | 176° |
| 2026-04-28 12:14 | -0.12412 | -78.35841 | 7850 ft | 6 kts | 176° |
| 2026-04-28 12:14 | -0.12464 | -78.35836 | 7850 ft | 9 kts | 175° |
| 2026-04-28 12:14 | -0.12538 | -78.35833 | 7850 ft | 10 kts | 181° |
| 2026-04-28 12:15 | -0.12603 | -78.35831 | 7850 ft | 9 kts | 178° |
| 2026-04-28 12:15 | -0.12670 | -78.35825 | 7850 ft | 8 kts | 165° |
| 2026-04-28 12:15 | -0.12690 | -78.35799 | 7852 ft | 5 kts | 112° |
| 2026-04-28 12:15 | -0.12695 | -78.35764 | 7853 ft | 6 kts | 90° |
| 2026-04-28 12:16 | -0.12693 | -78.35712 | 7855 ft | 7 kts | 87° |
| 2026-04-28 12:16 | -0.12692 | -78.35685 | 7859 ft | 2 kts | 87° |
| 2026-04-28 12:16 | -0.12692 | -78.35682 | 7859 ft | 0 kts | 87° |
| 2026-04-28 12:16 | -0.12691 | -78.35672 | 7861 ft | 4 kts | 87° |
| 2026-04-28 12:17 | -0.12691 | -78.35635 | 7866 ft | 6 kts | 95° |
| 2026-04-28 12:17 | -0.12709 | -78.35612 | 7868 ft | 4 kts | 142° |
| 2026-04-28 12:17 | -0.12753 | -78.35601 | 7872 ft | 9 kts | 172° |
| 2026-04-28 12:17 | -0.12827 | -78.35597 | 7874 ft | 13 kts | 177° |
| 2026-04-28 12:18 | -0.12927 | -78.35593 | 7877 ft | 16 kts | 178° |
| 2026-04-28 12:18 | -0.13050 | -78.35588 | 7883 ft | 19 kts | 178° |
| 2026-04-28 12:18 | -0.13177 | -78.35582 | 7893 ft | 16 kts | 178° |
| 2026-04-28 12:18 | -0.13285 | -78.35578 | 7892 ft | 17 kts | 177° |
| 2026-04-28 12:19 | -0.13410 | -78.35572 | 7893 ft | 19 kts | 178° |
| 2026-04-28 12:19 | -0.13530 | -78.35567 | 7896 ft | 15 kts | 177° |
| 2026-04-28 12:19 | -0.13631 | -78.35562 | 7900 ft | 14 kts | 178° |
| 2026-04-28 12:19 | -0.13735 | -78.35560 | 7904 ft | 16 kts | 179° |
| 2026-04-28 12:20 | -0.13851 | -78.35554 | 7909 ft | 18 kts | 177° |
| 2026-04-28 12:20 | -0.13969 | -78.35550 | 7911 ft | 15 kts | 177° |
| 2026-04-28 12:20 | -0.14059 | -78.35545 | 7920 ft | 12 kts | 176° |
| 2026-04-28 12:20 | -0.14134 | -78.35541 | 7924 ft | 10 kts | 177° |
| 2026-04-28 12:21 | -0.14202 | -78.35535 | 7922 ft | 10 kts | 165° |
| 2026-04-28 12:21 | -0.14251 | -78.35492 | 7924 ft | 9 kts | 112° |
| 2026-04-28 12:21 | -0.14257 | -78.35417 | 7924 ft | 11 kts | 88° |
| 2026-04-28 12:21 | -0.14234 | -78.35376 | 7929 ft | 6 kts | 28° |
| 2026-04-28 12:22 | -0.14189 | -78.35369 | 7925 ft | 6 kts | 359° |
| 2026-04-28 12:22 | -0.14182 | -78.35369 | 7924 ft | 2 kts | 359° |
| 2026-04-28 12:22 | -0.14070 | -78.35372 | 7920 ft | 48 kts | 358° |
| 2026-04-28 12:22 | -0.13412 | -78.35400 | 7896 ft | 138 kts | 358° |
| 2026-04-28 12:23 | -0.12241 | -78.35451 | 8012 ft | 189 kts | 357° |
| 2026-04-28 12:23 | -0.10935 | -78.35518 | 9066 ft | 189 kts | 359° |
| 2026-04-28 12:23 | -0.09600 | -78.35586 | 9995 ft | 197 kts | 355° |
| 2026-04-28 12:23 | -0.08243 | -78.35902 | 10901 ft | 199 kts | 345° |
| 2026-04-28 12:24 | -0.06861 | -78.36347 | 11445 ft | 227 kts | 343° |
| 2026-04-28 12:24 | -0.05254 | -78.36892 | 11632 ft | 258 kts | 343° |
| 2026-04-28 12:24 | -0.03470 | -78.37495 | 11867 ft | 284 kts | 342° |
| 2026-04-28 12:24 | -0.01518 | -78.38162 | 12184 ft | 310 kts | 341° |
| 2026-04-28 12:25 | 0.00629 | -78.38892 | 12205 ft | 349 kts | 342° |
| 2026-04-28 12:25 | 0.02996 | -78.39692 | 12785 ft | 370 kts | 342° |
| 2026-04-28 12:25 | 0.05374 | -78.40501 | 14389 ft | 354 kts | 343° |
| 2026-04-28 12:25 | 0.07790 | -78.41322 | 14850 ft | 378 kts | 343° |
| 2026-04-28 12:26 | 0.10315 | -78.42108 | 15617 ft | 382 kts | 348° |
| 2026-04-28 12:26 | 0.12905 | -78.42515 | 16699 ft | 380 kts | 358° |
| 2026-04-28 12:26 | 0.15562 | -78.42238 | 17242 ft | 389 kts | 18° |
| 2026-04-28 12:26 | 0.18036 | -78.41124 | 18074 ft | 392 kts | 34° |
| 2026-04-28 12:27 | 0.20182 | -78.39429 | 18861 ft | 396 kts | 44° |
| 2026-04-28 12:27 | 0.22144 | -78.37528 | 19552 ft | 400 kts | 46° |
| 2026-04-28 12:27 | 0.24097 | -78.35540 | 20253 ft | 405 kts | 46° |
| 2026-04-28 12:27 | 0.26091 | -78.33525 | 20948 ft | 409 kts | 46° |
| 2026-04-28 12:28 | 0.28128 | -78.31512 | 21608 ft | 414 kts | 45° |
| 2026-04-28 12:28 | 0.30208 | -78.29498 | 22246 ft | 419 kts | 45° |
| 2026-04-28 12:28 | 0.32329 | -78.27473 | 22935 ft | 424 kts | 45° |
| 2026-04-28 12:28 | 0.34479 | -78.25435 | 23624 ft | 429 kts | 44° |
| 2026-04-28 12:29 | 0.38838 | -78.21322 | 24851 ft | 438 kts | 45° |
| 2026-04-28 12:29 | 0.41059 | -78.19229 | 25449 ft | 442 kts | 45° |
| 2026-04-28 12:29 | 0.43468 | -78.17274 | 26026 ft | 449 kts | 35° |
| 2026-04-28 12:30 | 0.46179 | -78.15671 | 26591 ft | 456 kts | 30° |
| 2026-04-28 12:30 | 0.49032 | -78.14257 | 27198 ft | 461 kts | 27° |
| 2026-04-28 12:30 | 0.51960 | -78.12899 | 27794 ft | 467 kts | 26° |
| 2026-04-28 12:30 | 0.54933 | -78.11532 | 28386 ft | 472 kts | 26° |
| 2026-04-28 12:31 | 0.57921 | -78.10137 | 28965 ft | 477 kts | 27° |
| 2026-04-28 12:31 | 0.60897 | -78.08722 | 29536 ft | 482 kts | 27° |
| 2026-04-28 12:31 | 0.63919 | -78.07267 | 30103 ft | 487 kts | 27° |
| 2026-04-28 12:31 | 0.66997 | -78.05772 | 30627 ft | 492 kts | 27° |
| 2026-04-28 12:32 | 0.70081 | -78.04269 | 31151 ft | 494 kts | 27° |
| 2026-04-28 12:32 | 0.73170 | -78.02763 | 31882 ft | 491 kts | 27° |
| 2026-04-28 12:32 | 0.76236 | -78.01268 | 32635 ft | 487 kts | 26° |
| 2026-04-28 12:32 | 0.79262 | -77.99793 | 33446 ft | 482 kts | 26° |
| 2026-04-28 12:33 | 0.82266 | -77.98330 | 34185 ft | 478 kts | 26° |
| 2026-04-28 12:33 | 0.85250 | -77.96876 | 34769 ft | 476 kts | 25° |
| 2026-04-28 12:33 | 0.88225 | -77.95427 | 35307 ft | 475 kts | 25° |
| 2026-04-28 12:33 | 0.91160 | -77.93998 | 35702 ft | 476 kts | 25° |
| 2026-04-28 12:34 | 0.94135 | -77.92549 | 36178 ft | 476 kts | 24° |
| 2026-04-28 12:34 | 0.97107 | -77.91102 | 36666 ft | 475 kts | 24° |
| 2026-04-28 12:34 | 1.00073 | -77.89657 | 37152 ft | 473 kts | 24° |
| 2026-04-28 12:34 | 1.03030 | -77.88217 | 37631 ft | 472 kts | 24° |
| 2026-04-28 12:35 | 1.05980 | -77.86780 | 38055 ft | 471 kts | 24° |
| 2026-04-28 12:35 | 1.08920 | -77.85348 | 38504 ft | 470 kts | 24° |
| 2026-04-28 12:35 | 1.11859 | -77.83916 | 38922 ft | 469 kts | 24° |
| 2026-04-28 12:35 | 1.14748 | -77.82509 | 39289 ft | 468 kts | 24° |
| 2026-04-28 12:36 | 1.17671 | -77.81086 | 39627 ft | 468 kts | 24° |
| 2026-04-28 12:36 | 1.20599 | -77.79659 | 39855 ft | 468 kts | 24° |
| 2026-04-28 12:36 | 1.23528 | -77.78233 | 40149 ft | 469 kts | 24° |
| 2026-04-28 12:36 | 1.26462 | -77.76803 | 40398 ft | 469 kts | 24° |
| 2026-04-28 12:37 | 1.29399 | -77.75372 | 40668 ft | 470 kts | 24° |
| 2026-04-28 12:37 | 1.32336 | -77.73942 | 40926 ft | 470 kts | 24° |
| 2026-04-28 12:37 | 1.35286 | -77.72504 | 41052 ft | 473 kts | 24° |
| 2026-04-28 12:38 | 1.41186 | -77.69631 | 41105 ft | 476 kts | 24° |
| 2026-04-28 12:38 | 1.47140 | -77.66729 | 41108 ft | 476 kts | 24° |
| 2026-04-28 12:39 | 1.53102 | -77.63824 | 41072 ft | 477 kts | 24° |
| 2026-04-28 12:39 | 1.59028 | -77.60936 | 41075 ft | 477 kts | 24° |
| 2026-04-28 12:40 | 1.64993 | -77.58030 | 41049 ft | 476 kts | 24° |
| 2026-04-28 12:40 | 1.70937 | -77.55132 | 41059 ft | 475 kts | 24° |
| 2026-04-28 12:41 | 1.76884 | -77.52233 | 41063 ft | 475 kts | 24° |
| 2026-04-28 12:41 | 1.82822 | -77.49339 | 41055 ft | 475 kts | 24° |
| 2026-04-28 12:42 | 1.88723 | -77.46463 | 41050 ft | 475 kts | 24° |
| 2026-04-28 12:42 | 1.94674 | -77.43562 | 41042 ft | 476 kts | 24° |
| 2026-04-28 12:43 | 2.00624 | -77.40660 | 41036 ft | 476 kts | 24° |
| 2026-04-28 12:43 | 2.06577 | -77.37758 | 41037 ft | 476 kts | 24° |
| 2026-04-28 12:44 | 2.12533 | -77.34853 | 41047 ft | 476 kts | 24° |
| 2026-04-28 12:44 | 2.18444 | -77.31971 | 41042 ft | 476 kts | 24° |
| 2026-04-28 12:45 | 2.24402 | -77.29065 | 41047 ft | 476 kts | 24° |
| 2026-04-28 12:45 | 2.30351 | -77.26164 | 41033 ft | 475 kts | 24° |
| 2026-04-28 12:46 | 2.36284 | -77.23270 | 41048 ft | 475 kts | 24° |
| 2026-04-28 12:46 | 2.42182 | -77.20393 | 41049 ft | 475 kts | 25° |
| 2026-04-28 12:47 | 2.48124 | -77.17493 | 41053 ft | 475 kts | 25° |
| 2026-04-28 12:47 | 2.54075 | -77.14590 | 41033 ft | 475 kts | 25° |
| 2026-04-28 12:48 | 2.59985 | -77.11706 | 41032 ft | 475 kts | 25° |
| 2026-04-28 12:48 | 2.65923 | -77.08808 | 41020 ft | 474 kts | 25° |
| 2026-04-28 12:49 | 2.71852 | -77.05914 | 41033 ft | 474 kts | 25° |
| 2026-04-28 12:49 | 2.77780 | -77.03019 | 41016 ft | 474 kts | 25° |
| 2026-04-28 12:50 | 2.83671 | -77.00143 | 41020 ft | 474 kts | 25° |
| 2026-04-28 12:50 | 2.89595 | -76.97251 | 41025 ft | 474 kts | 25° |
| 2026-04-28 12:51 | 2.95527 | -76.94354 | 41023 ft | 474 kts | 25° |
| 2026-04-28 12:51 | 3.01456 | -76.91459 | 41030 ft | 474 kts | 24° |
| 2026-04-28 12:52 | 3.07348 | -76.88581 | 41027 ft | 474 kts | 25° |
| 2026-04-28 12:52 | 3.13278 | -76.85685 | 41023 ft | 474 kts | 25° |
| 2026-04-28 12:53 | 3.19200 | -76.82791 | 41024 ft | 474 kts | 25° |
| 2026-04-28 12:53 | 3.25123 | -76.79897 | 41021 ft | 473 kts | 25° |
| 2026-04-28 12:54 | 3.31004 | -76.77023 | 41020 ft | 474 kts | 25° |
| 2026-04-28 12:54 | 3.36926 | -76.74129 | 41025 ft | 473 kts | 25° |
| 2026-04-28 12:55 | 3.42844 | -76.71236 | 41020 ft | 474 kts | 25° |
| 2026-04-28 12:55 | 3.48776 | -76.68335 | 41010 ft | 474 kts | 25° |
| 2026-04-28 12:56 | 3.54655 | -76.65460 | 41046 ft | 474 kts | 25° |
| 2026-04-28 12:56 | 3.60576 | -76.62565 | 41058 ft | 474 kts | 25° |
| 2026-04-28 12:57 | 3.66496 | -76.59669 | 41059 ft | 474 kts | 25° |
| 2026-04-28 12:57 | 3.72418 | -76.56772 | 41058 ft | 474 kts | 25° |
| 2026-04-28 12:58 | 3.78320 | -76.53885 | 41046 ft | 475 kts | 25° |
| 2026-04-28 12:58 | 3.84266 | -76.50976 | 41042 ft | 476 kts | 25° |
| 2026-04-28 12:59 | 3.90211 | -76.48066 | 41086 ft | 475 kts | 25° |
| 2026-04-28 12:59 | 3.96149 | -76.45160 | 41085 ft | 475 kts | 25° |
| 2026-04-28 13:00 | 4.02046 | -76.42273 | 41097 ft | 475 kts | 25° |
| 2026-04-28 13:00 | 4.07983 | -76.39366 | 41102 ft | 475 kts | 25° |
| 2026-04-28 13:01 | 4.13925 | -76.36456 | 41097 ft | 476 kts | 24° |
| 2026-04-28 13:01 | 4.19873 | -76.33543 | 41130 ft | 476 kts | 24° |
| 2026-04-28 13:02 | 4.25788 | -76.30644 | 41138 ft | 476 kts | 24° |
| 2026-04-28 13:02 | 4.31742 | -76.27727 | 41125 ft | 476 kts | 24° |
| 2026-04-28 13:03 | 4.37680 | -76.24817 | 41134 ft | 476 kts | 24° |
| 2026-04-28 13:03 | 4.43637 | -76.21897 | 41133 ft | 476 kts | 24° |
| 2026-04-28 13:04 | 4.49557 | -76.18995 | 41164 ft | 478 kts | 24° |
| 2026-04-28 13:04 | 4.55528 | -76.16068 | 41138 ft | 478 kts | 24° |
| 2026-04-28 13:05 | 4.61503 | -76.13138 | 41133 ft | 478 kts | 24° |
| 2026-04-28 13:05 | 4.67475 | -76.10209 | 41109 ft | 478 kts | 24° |
| 2026-04-28 13:06 | 4.73405 | -76.07300 | 41088 ft | 478 kts | 24° |
| 2026-04-28 13:06 | 4.79372 | -76.04372 | 41108 ft | 478 kts | 24° |
| 2026-04-28 13:07 | 4.85341 | -76.01442 | 41115 ft | 478 kts | 24° |
| 2026-04-28 13:07 | 4.91320 | -75.98508 | 41137 ft | 479 kts | 24° |
| 2026-04-28 13:07 | 4.93302 | -75.97535 | 41250 ft | 479 kts | 24° |
| 2026-04-28 13:08 | 4.97267 | -75.95587 | 41250 ft | 479 kts | 24° |
| 2026-04-28 13:08 | 5.03245 | -75.92650 | 41285 ft | 479 kts | 24° |
| 2026-04-28 13:09 | 5.09235 | -75.89708 | 41286 ft | 479 kts | 24° |
| 2026-04-28 13:09 | 5.15219 | -75.86768 | 41277 ft | 479 kts | 24° |
| 2026-04-28 13:10 | 5.21203 | -75.83827 | 41287 ft | 479 kts | 24° |
| 2026-04-28 13:10 | 5.27159 | -75.80901 | 41283 ft | 480 kts | 24° |
| 2026-04-28 13:11 | 5.33157 | -75.77952 | 41300 ft | 480 kts | 24° |
| 2026-04-28 13:11 | 5.39151 | -75.75006 | 41301 ft | 480 kts | 24° |
| 2026-04-28 13:12 | 5.45150 | -75.72055 | 41296 ft | 479 kts | 24° |
| 2026-04-28 13:12 | 5.51100 | -75.69128 | 41283 ft | 480 kts | 24° |
| 2026-04-28 13:13 | 5.57089 | -75.66182 | 41286 ft | 479 kts | 24° |
| 2026-04-28 13:13 | 5.63084 | -75.63231 | 41281 ft | 479 kts | 24° |
| 2026-04-28 13:14 | 5.69038 | -75.60300 | 41278 ft | 479 kts | 24° |
| 2026-04-28 13:14 | 5.75024 | -75.57351 | 41287 ft | 479 kts | 24° |
| 2026-04-28 13:15 | 5.81008 | -75.54404 | 41272 ft | 479 kts | 24° |
| 2026-04-28 13:15 | 5.86997 | -75.51453 | 41290 ft | 479 kts | 24° |
| 2026-04-28 13:16 | 5.92987 | -75.48502 | 41305 ft | 480 kts | 24° |
| 2026-04-28 13:16 | 5.98949 | -75.45564 | 41336 ft | 480 kts | 24° |
| 2026-04-28 13:17 | 6.04948 | -75.42607 | 41361 ft | 481 kts | 24° |
| 2026-04-28 13:17 | 6.10949 | -75.39648 | 41372 ft | 480 kts | 25° |
| 2026-04-28 13:18 | 6.16941 | -75.36693 | 41373 ft | 480 kts | 25° |
| 2026-04-28 13:18 | 6.22893 | -75.33756 | 41365 ft | 480 kts | 25° |
| 2026-04-28 13:19 | 6.28887 | -75.30799 | 41328 ft | 481 kts | 24° |
| 2026-04-28 13:19 | 6.34894 | -75.27834 | 41197 ft | 481 kts | 24° |
| 2026-04-28 13:20 | 6.40907 | -75.24866 | 41195 ft | 481 kts | 24° |
| 2026-04-28 13:20 | 6.46916 | -75.21897 | 41200 ft | 481 kts | 25° |
| 2026-04-28 13:21 | 6.52886 | -75.18946 | 41147 ft | 481 kts | 24° |
| 2026-04-28 13:21 | 6.58896 | -75.15976 | 41147 ft | 481 kts | 24° |
| 2026-04-28 13:22 | 6.64910 | -75.13004 | 41126 ft | 482 kts | 24° |
| 2026-04-28 13:22 | 6.70934 | -75.10026 | 41127 ft | 483 kts | 24° |
| 2026-04-28 13:23 | 6.76917 | -75.07067 | 41110 ft | 483 kts | 24° |
| 2026-04-28 13:23 | 6.82943 | -75.04087 | 41078 ft | 482 kts | 25° |
| 2026-04-28 13:24 | 6.88971 | -75.01105 | 41079 ft | 483 kts | 25° |
| 2026-04-28 13:24 | 6.94997 | -74.98122 | 41049 ft | 482 kts | 25° |
| 2026-04-28 13:25 | 7.00979 | -74.95161 | 41049 ft | 483 kts | 25° |
| 2026-04-28 13:25 | 7.07004 | -74.92177 | 41029 ft | 483 kts | 25° |
| 2026-04-28 13:26 | 7.13029 | -74.89193 | 41015 ft | 483 kts | 25° |
| 2026-04-28 13:26 | 7.19058 | -74.86206 | 41028 ft | 483 kts | 25° |
| 2026-04-28 13:27 | 7.25041 | -74.83238 | 41026 ft | 483 kts | 25° |
| 2026-04-28 13:27 | 7.31064 | -74.80250 | 41015 ft | 483 kts | 25° |
| 2026-04-28 13:28 | 7.37094 | -74.77259 | 40984 ft | 483 kts | 25° |
| 2026-04-28 13:28 | 7.43119 | -74.74271 | 40987 ft | 483 kts | 25° |
| 2026-04-28 13:29 | 7.49107 | -74.71299 | 40968 ft | 483 kts | 25° |
| 2026-04-28 13:29 | 7.55140 | -74.68304 | 40963 ft | 483 kts | 25° |
| 2026-04-28 13:30 | 7.61165 | -74.65313 | 40966 ft | 483 kts | 25° |
| 2026-04-28 13:30 | 7.66176 | -74.62824 | 40968 ft | 483 kts | 25° |
| 2026-04-28 13:31 | 7.75227 | -74.58327 | 40972 ft | 483 kts | 25° |
| 2026-04-28 13:31 | 7.82227 | -74.54847 | 40961 ft | 483 kts | 25° |
| 2026-04-28 13:32 | 7.87237 | -74.52356 | 40967 ft | 483 kts | 25° |
| 2026-04-28 13:32 | 7.93267 | -74.49357 | 40972 ft | 483 kts | 25° |
| 2026-04-28 13:33 | 7.99296 | -74.46354 | 40966 ft | 483 kts | 25° |
| 2026-04-28 13:33 | 8.05309 | -74.43360 | 40970 ft | 483 kts | 25° |
| 2026-04-28 13:34 | 8.11296 | -74.40378 | 40966 ft | 482 kts | 25° |
| 2026-04-28 13:34 | 8.17299 | -74.37389 | 40962 ft | 482 kts | 25° |
| 2026-04-28 13:35 | 8.23312 | -74.34393 | 40956 ft | 482 kts | 25° |
| 2026-04-28 13:35 | 8.29320 | -74.31399 | 40956 ft | 481 kts | 25° |
| 2026-04-28 13:36 | 8.35324 | -74.28405 | 40952 ft | 481 kts | 25° |
| 2026-04-28 13:36 | 8.41290 | -74.25430 | 40951 ft | 481 kts | 25° |
| 2026-04-28 13:37 | 8.47278 | -74.22442 | 40940 ft | 480 kts | 25° |
| 2026-04-28 13:37 | 8.53267 | -74.19454 | 40927 ft | 480 kts | 25° |
| 2026-04-28 13:38 | 8.59257 | -74.16463 | 40937 ft | 480 kts | 25° |
| 2026-04-28 13:38 | 8.65204 | -74.13493 | 40927 ft | 480 kts | 25° |
| 2026-04-28 13:39 | 8.71189 | -74.10502 | 40919 ft | 480 kts | 25° |
| 2026-04-28 13:39 | 8.77171 | -74.07509 | 40918 ft | 480 kts | 25° |
| 2026-04-28 13:40 | 8.83169 | -74.04509 | 40916 ft | 481 kts | 25° |
| 2026-04-28 13:40 | 8.89134 | -74.01526 | 40920 ft | 481 kts | 25° |
| 2026-04-28 13:41 | 8.95131 | -73.98525 | 40922 ft | 481 kts | 25° |
| 2026-04-28 13:41 | 9.01136 | -73.95519 | 40913 ft | 481 kts | 25° |
| 2026-04-28 13:42 | 9.07139 | -73.92514 | 40914 ft | 481 kts | 25° |
| 2026-04-28 13:42 | 9.13138 | -73.89509 | 40913 ft | 482 kts | 24° |
| 2026-04-28 13:43 | 9.19116 | -73.86514 | 40906 ft | 483 kts | 24° |
| 2026-04-28 13:43 | 9.25136 | -73.83496 | 40916 ft | 483 kts | 25° |
| 2026-04-28 13:44 | 9.31153 | -73.80478 | 40914 ft | 483 kts | 24° |
| 2026-04-28 13:44 | 9.37163 | -73.77464 | 40919 ft | 483 kts | 25° |
| 2026-04-28 13:45 | 9.43151 | -73.74458 | 40919 ft | 483 kts | 25° |
| 2026-04-28 13:45 | 9.49176 | -73.71431 | 40911 ft | 484 kts | 24° |
| 2026-04-28 13:46 | 9.55216 | -73.68395 | 40918 ft | 485 kts | 24° |
| 2026-04-28 13:46 | 9.61255 | -73.65360 | 40917 ft | 485 kts | 24° |
| 2026-04-28 13:47 | 9.67259 | -73.62342 | 40918 ft | 485 kts | 25° |
| 2026-04-28 13:47 | 9.73294 | -73.59307 | 40915 ft | 485 kts | 25° |
| 2026-04-28 13:48 | 9.79336 | -73.56269 | 40915 ft | 485 kts | 25° |
| 2026-04-28 13:48 | 9.85387 | -73.53228 | 40918 ft | 486 kts | 24° |
| 2026-04-28 13:49 | 9.91405 | -73.50203 | 40932 ft | 486 kts | 24° |
| 2026-04-28 13:49 | 9.97468 | -73.47153 | 40926 ft | 486 kts | 24° |
| 2026-04-28 13:50 | 10.03521 | -73.44107 | 40932 ft | 486 kts | 24° |
| 2026-04-28 13:50 | 10.09583 | -73.41055 | 40936 ft | 486 kts | 24° |
| 2026-04-28 13:51 | 10.15605 | -73.38022 | 40951 ft | 487 kts | 24° |
| 2026-04-28 13:51 | 10.21689 | -73.34957 | 40977 ft | 489 kts | 24° |
| 2026-04-28 13:52 | 10.23174 | -73.34208 | 40978 ft | 489 kts | 24° |
| 2026-04-28 13:52 | 10.29277 | -73.31132 | 40974 ft | 489 kts | 24° |
| 2026-04-28 13:53 | 10.35374 | -73.28057 | 40988 ft | 489 kts | 24° |
| 2026-04-28 13:53 | 10.41423 | -73.25005 | 40999 ft | 489 kts | 24° |
| 2026-04-28 13:54 | 10.47513 | -73.21930 | 40996 ft | 489 kts | 24° |
| 2026-04-28 13:54 | 10.53602 | -73.18852 | 40991 ft | 489 kts | 24° |
| 2026-04-28 13:55 | 10.59688 | -73.15775 | 41001 ft | 489 kts | 24° |
| 2026-04-28 13:55 | 10.65735 | -73.12718 | 41006 ft | 489 kts | 24° |
| 2026-04-28 13:56 | 10.71834 | -73.09634 | 40999 ft | 489 kts | 24° |
| 2026-04-28 13:56 | 10.77920 | -73.06555 | 40992 ft | 489 kts | 24° |
| 2026-04-28 13:57 | 10.84008 | -73.03474 | 40995 ft | 489 kts | 24° |
| 2026-04-28 13:57 | 10.90068 | -73.00405 | 40988 ft | 490 kts | 24° |
| 2026-04-28 13:58 | 10.96174 | -72.97312 | 40977 ft | 490 kts | 24° |
| 2026-04-28 13:58 | 11.02280 | -72.94217 | 40972 ft | 490 kts | 24° |
| 2026-04-28 13:59 | 11.08379 | -72.91124 | 40963 ft | 489 kts | 24° |
| 2026-04-28 13:59 | 11.14434 | -72.88052 | 40970 ft | 489 kts | 24° |
| 2026-04-28 14:00 | 11.20529 | -72.84959 | 40976 ft | 490 kts | 24° |
| 2026-04-28 14:00 | 11.26635 | -72.81856 | 40951 ft | 491 kts | 25° |
| 2026-04-28 14:01 | 11.32740 | -72.78751 | 40960 ft | 490 kts | 25° |
| 2026-04-28 14:01 | 11.38802 | -72.75655 | 40965 ft | 491 kts | 26° |
| 2026-04-28 14:02 | 11.44352 | -72.71624 | 40959 ft | 493 kts | 45° |
| 2026-04-28 14:02 | 11.46519 | -72.68921 | 40968 ft | 494 kts | 57° |
| 2026-04-28 14:02 | 11.48182 | -72.65864 | 40986 ft | 493 kts | 66° |
| 2026-04-28 14:03 | 11.50796 | -72.59390 | 41008 ft | 494 kts | 69° |
| 2026-04-28 14:03 | 11.53487 | -72.52976 | 41029 ft | 496 kts | 66° |
| 2026-04-28 14:04 | 11.56419 | -72.46615 | 41019 ft | 496 kts | 65° |
| 2026-04-28 14:04 | 11.59431 | -72.40279 | 41016 ft | 496 kts | 64° |
| 2026-04-28 14:05 | 11.62443 | -72.33943 | 41031 ft | 496 kts | 64° |
| 2026-04-28 14:05 | 11.65423 | -72.27647 | 41008 ft | 496 kts | 65° |
| 2026-04-28 14:06 | 11.68414 | -72.21312 | 41004 ft | 495 kts | 64° |
| 2026-04-28 14:06 | 11.71403 | -72.14978 | 41000 ft | 495 kts | 65° |
| 2026-04-28 14:07 | 11.74338 | -72.08756 | 40975 ft | 481 kts | 65° |
| 2026-04-28 14:07 | 11.75791 | -72.05676 | 40668 ft | 480 kts | 65° |
| 2026-04-28 14:07 | 11.77236 | -72.02608 | 40356 ft | 481 kts | 65° |
| 2026-04-28 14:08 | 11.78665 | -71.99574 | 39937 ft | 480 kts | 65° |
| 2026-04-28 14:08 | 11.80114 | -71.96497 | 39366 ft | 482 kts | 65° |
| 2026-04-28 14:08 | 11.81566 | -71.93412 | 38802 ft | 482 kts | 65° |
| 2026-04-28 14:08 | 11.83022 | -71.90312 | 38184 ft | 486 kts | 64° |
| 2026-04-28 14:09 | 11.84480 | -71.87204 | 37586 ft | 486 kts | 64° |
| 2026-04-28 14:09 | 11.85944 | -71.84083 | 37010 ft | 487 kts | 64° |
| 2026-04-28 14:09 | 11.87408 | -71.80965 | 36448 ft | 488 kts | 64° |
| 2026-04-28 14:09 | 11.88856 | -71.77882 | 35880 ft | 489 kts | 64° |
| 2026-04-28 14:10 | 11.90331 | -71.74743 | 35286 ft | 490 kts | 64° |
| 2026-04-28 14:10 | 11.91805 | -71.71604 | 34675 ft | 491 kts | 65° |
| 2026-04-28 14:10 | 11.93285 | -71.68453 | 34082 ft | 492 kts | 65° |
| 2026-04-28 14:10 | 11.94766 | -71.65298 | 33411 ft | 494 kts | 65° |
| 2026-04-28 14:11 | 11.96217 | -71.62122 | 32775 ft | 495 kts | 67° |
| 2026-04-28 14:11 | 11.97491 | -71.58855 | 32131 ft | 495 kts | 71° |
| 2026-04-28 14:11 | 11.98631 | -71.55540 | 31480 ft | 496 kts | 72° |
| 2026-04-28 14:11 | 11.99715 | -71.52193 | 30817 ft | 496 kts | 73° |
| 2026-04-28 14:12 | 12.00783 | -71.48845 | 30175 ft | 496 kts | 73° |
| 2026-04-28 14:12 | 12.01842 | -71.45546 | 29460 ft | 496 kts | 73° |
| 2026-04-28 14:12 | 12.02929 | -71.42197 | 28774 ft | 497 kts | 73° |
| 2026-04-28 14:12 | 12.04027 | -71.38845 | 28100 ft | 498 kts | 73° |
| 2026-04-28 14:13 | 12.05132 | -71.35494 | 27400 ft | 496 kts | 72° |
| 2026-04-28 14:13 | 12.06231 | -71.32173 | 26702 ft | 492 kts | 73° |
| 2026-04-28 14:13 | 12.07319 | -71.28885 | 26010 ft | 486 kts | 73° |
| 2026-04-28 14:13 | 12.08395 | -71.25634 | 25328 ft | 481 kts | 73° |
| 2026-04-28 14:14 | 12.09459 | -71.22415 | 24648 ft | 474 kts | 73° |
| 2026-04-28 14:14 | 12.10494 | -71.19281 | 23990 ft | 471 kts | 73° |
| 2026-04-28 14:14 | 12.11533 | -71.16130 | 23282 ft | 465 kts | 73° |
| 2026-04-28 14:14 | 12.12562 | -71.13008 | 22547 ft | 461 kts | 73° |
| 2026-04-28 14:15 | 12.13575 | -71.09932 | 21863 ft | 453 kts | 73° |
| 2026-04-28 14:15 | 12.14575 | -71.06897 | 21212 ft | 448 kts | 73° |
| 2026-04-28 14:15 | 12.15559 | -71.03910 | 20580 ft | 441 kts | 73° |
| 2026-04-28 14:15 | 12.16533 | -71.00950 | 19954 ft | 436 kts | 73° |
| 2026-04-28 14:16 | 12.17491 | -70.98036 | 19351 ft | 429 kts | 72° |
| 2026-04-28 14:16 | 12.18424 | -70.95199 | 19017 ft | 426 kts | 72° |
| 2026-04-28 14:16 | 12.19361 | -70.92345 | 18503 ft | 423 kts | 72° |
| 2026-04-28 14:16 | 12.20293 | -70.89511 | 17656 ft | 416 kts | 72° |
| 2026-04-28 14:17 | 12.21205 | -70.86735 | 16918 ft | 408 kts | 72° |
| 2026-04-28 14:17 | 12.22104 | -70.84000 | 16284 ft | 403 kts | 73° |
| 2026-04-28 14:17 | 12.22989 | -70.81299 | 15695 ft | 398 kts | 73° |
| 2026-04-28 14:17 | 12.23861 | -70.78631 | 15116 ft | 393 kts | 73° |
| 2026-04-28 14:18 | 12.24710 | -70.76031 | 14561 ft | 389 kts | 73° |
| 2026-04-28 14:18 | 12.25563 | -70.73423 | 14009 ft | 384 kts | 73° |
| 2026-04-28 14:18 | 12.26406 | -70.70843 | 13423 ft | 381 kts | 73° |
| 2026-04-28 14:18 | 12.27242 | -70.68292 | 12841 ft | 376 kts | 73° |
| 2026-04-28 14:19 | 12.28067 | -70.65774 | 12292 ft | 371 kts | 73° |
| 2026-04-28 14:19 | 12.28884 | -70.63278 | 11758 ft | 368 kts | 74° |
| 2026-04-28 14:19 | 12.29688 | -70.60824 | 11277 ft | 362 kts | 74° |
| 2026-04-28 14:19 | 12.30486 | -70.58383 | 10983 ft | 361 kts | 74° |
| 2026-04-28 14:20 | 12.31264 | -70.56011 | 10851 ft | 340 kts | 74° |
| 2026-04-28 14:20 | 12.31984 | -70.53822 | 10732 ft | 319 kts | 74° |
| 2026-04-28 14:20 | 12.32668 | -70.51738 | 10626 ft | 300 kts | 75° |
| 2026-04-28 14:20 | 12.33314 | -70.49767 | 10502 ft | 286 kts | 75° |
| 2026-04-28 14:21 | 12.33938 | -70.47851 | 10394 ft | 283 kts | 75° |
| 2026-04-28 14:21 | 12.34559 | -70.45941 | 10146 ft | 282 kts | 76° |
| 2026-04-28 14:21 | 12.35175 | -70.44049 | 9703 ft | 280 kts | 75° |
| 2026-04-28 14:21 | 12.35786 | -70.42172 | 9185 ft | 277 kts | 75° |
| 2026-04-28 14:22 | 12.36388 | -70.40326 | 8711 ft | 275 kts | 76° |
| 2026-04-28 14:22 | 12.36989 | -70.38482 | 8249 ft | 273 kts | 75° |
| 2026-04-28 14:22 | 12.37587 | -70.36645 | 7793 ft | 272 kts | 75° |
| 2026-04-28 14:22 | 12.38182 | -70.34820 | 7371 ft | 269 kts | 76° |
| 2026-04-28 14:23 | 12.38771 | -70.33012 | 6968 ft | 267 kts | 75° |
| 2026-04-28 14:23 | 12.39357 | -70.31212 | 6558 ft | 266 kts | 75° |
| 2026-04-28 14:23 | 12.39941 | -70.29422 | 6136 ft | 264 kts | 75° |
| 2026-04-28 14:23 | 12.40683 | -70.27752 | 5818 ft | 261 kts | 59° |
| 2026-04-28 14:24 | 12.41985 | -70.26450 | 5436 ft | 264 kts | 40° |
| 2026-04-28 14:24 | 12.43502 | -70.25398 | 5078 ft | 262 kts | 37° |
| 2026-04-28 14:24 | 12.45059 | -70.24529 | 4732 ft | 248 kts | 25° |
| 2026-04-28 14:24 | 12.46650 | -70.24029 | 4360 ft | 231 kts | 20° |
| 2026-04-28 14:25 | 12.48160 | -70.23646 | 4093 ft | 214 kts | 19° |
| 2026-04-28 14:25 | 12.49557 | -70.23301 | 3842 ft | 200 kts | 20° |
| 2026-04-28 14:25 | 12.50874 | -70.22972 | 3668 ft | 196 kts | 20° |
| 2026-04-28 14:25 | 12.52153 | -70.22546 | 3467 ft | 191 kts | 33° |
| 2026-04-28 14:26 | 12.53236 | -70.21815 | 3326 ft | 184 kts | 47° |
| 2026-04-28 14:26 | 12.54199 | -70.20962 | 3211 ft | 181 kts | 49° |
| 2026-04-28 14:26 | 12.54841 | -70.19935 | 3041 ft | 167 kts | 84° |
| 2026-04-28 14:26 | 12.54636 | -70.18806 | 2970 ft | 165 kts | 112° |
| 2026-04-28 14:27 | 12.54209 | -70.17713 | 2801 ft | 165 kts | 110° |
| 2026-04-28 14:27 | 12.53834 | -70.16607 | 2624 ft | 164 kts | 108° |
| 2026-04-28 14:27 | 12.53502 | -70.15543 | 2398 ft | 147 kts | 107° |
| 2026-04-28 14:27 | 12.53238 | -70.14588 | 2201 ft | 136 kts | 104° |
| 2026-04-28 14:28 | 12.53018 | -70.13654 | 2041 ft | 134 kts | 104° |
| 2026-04-28 14:28 | 12.52798 | -70.12731 | 1902 ft | 133 kts | 104° |
| 2026-04-28 14:28 | 12.52582 | -70.11817 | 1724 ft | 132 kts | 103° |
| 2026-04-28 14:28 | 12.52364 | -70.10899 | 1564 ft | 133 kts | 104° |
| 2026-04-28 14:29 | 12.52148 | -70.09989 | 1398 ft | 130 kts | 103° |
| 2026-04-28 14:29 | 12.51936 | -70.09093 | 1266 ft | 131 kts | 101° |
| 2026-04-28 14:29 | 12.51727 | -70.08185 | 1108 ft | 135 kts | 101° |
| 2026-04-28 14:29 | 12.51520 | -70.07272 | 912 ft | 131 kts | 102° |
| 2026-04-28 14:30 | 12.51308 | -70.06338 | 748 ft | 134 kts | 105° |
| 2026-04-28 14:30 | 12.51081 | -70.05423 | 599 ft | 131 kts | 104° |
| 2026-04-28 14:30 | 12.50861 | -70.04509 | 429 ft | 135 kts | 103° |
| 2026-04-28 14:30 | 12.50633 | -70.03563 | 229 ft | 136 kts | 102° |
| 2026-04-28 14:31 | 12.50412 | -70.02663 | 40 ft | 124 kts | 104° |
| 2026-04-28 14:31 | 12.50246 | -70.01977 | 35 ft | 60 kts | 104° |
| 2026-04-28 14:31 | 12.50169 | -70.01659 | 39 ft | 41 kts | 104° |
| 2026-04-28 14:31 | 12.50109 | -70.01410 | 43 ft | 33 kts | 104° |
| 2026-04-28 14:32 | 12.50063 | -70.01219 | 49 ft | 21 kts | 103° |
| 2026-04-28 14:32 | 12.50033 | -70.01093 | 50 ft | 16 kts | 104° |
| 2026-04-28 14:32 | 12.50045 | -70.01028 | 49 ft | 6 kts | 40° |
| 2026-04-28 14:32 | 12.50096 | -70.01006 | 52 ft | 10 kts | 14° |
| 2026-04-28 14:33 | 12.50155 | -70.00990 | 50 ft | 8 kts | 14° |
| 2026-04-28 14:33 | 12.50206 | -70.00976 | 50 ft | 5 kts | 22° |
| 2026-04-28 14:33 | 12.50222 | -70.00954 | 49 ft | 5 kts | 68° |
| 2026-04-28 14:33 | 12.50222 | -70.00911 | 49 ft | 6 kts | 98° |
| 2026-04-28 14:34 | 12.50201 | -70.00808 | 54 ft | 8 kts | 101° |
| 2026-04-28 14:34 | 12.50212 | -70.00782 | 53 ft | 5 kts | 49° |
| 2026-04-28 14:34 | 12.50242 | -70.00767 | 53 ft | 3 kts | 11° |
| 2026-04-28 14:35 | 12.50260 | -70.00764 | 53 ft | 2 kts | 13° |
| 2026-04-28 14:35 | 12.50269 | -70.00761 | 55 ft | 0 kts | 13° |
| 2026-04-28 14:35 | 12.50275 | -70.00760 | 52 ft | 0 kts | 13° |